Time;durP1;ratioP1;P1;durP2;ratioP2;P2;SDS_P1;SDS_P2;PMS_P1;PMS_P2;Temp;Humidity;BMP_temperature;BMP_pressure;BME280_temperature;BME280_humidity;BME280_pressure;Samples;Min_cycle;Max_cycle;Signal;HPM_P1;HPM_P2
2022/03/03 00:02:30;;;;;;;24.20;12.90;;;-1.20;99.90;;;-144.05;100.00;68007.91;5007523;28;20026;-77
2022/03/03 00:06:58;;;;;;;22.63;12.43;;;-1.30;99.90;;;-144.05;100.00;68007.91;5007685;28;20036;-76
2022/03/03 00:11:30;;;;;;;26.65;12.80;;;-1.10;99.90;;;-144.05;100.00;68007.91;5008568;28;20390;-78
2022/03/03 00:16:04;;;;;;;24.10;13.38;;;-1.10;99.90;;;-144.05;100.00;68007.91;4996093;28;20026;-76
2022/03/03 00:20:31;;;;;;;22.10;12.63;;;-1.10;99.90;;;-144.05;100.00;68007.91;4999918;28;20034;-76
2022/03/03 00:25:05;;;;;;;24.98;13.00;;;-1.00;99.90;;;-144.05;100.00;68007.91;5011368;28;20030;-76
2022/03/03 00:29:32;;;;;;;29.55;14.90;;;-1.00;99.90;;;-144.05;100.00;68007.91;4996006;28;20034;-77
2022/03/03 00:33:59;;;;;;;19.45;11.98;;;-1.10;99.90;;;-144.05;100.00;68007.91;4995988;28;20026;-80
2022/03/03 00:38:29;;;;;;;23.58;13.15;;;-1.10;99.90;;;-144.05;100.00;68007.91;4995910;28;20029;-78
2022/03/03 00:42:56;;;;;;;14.38;8.18;;;-1.20;99.90;;;-144.05;100.00;68007.91;4998359;28;20061;-75
2022/03/03 00:47:24;;;;;;;20.98;11.55;;;-1.40;99.90;;;-144.05;100.00;68007.91;4979840;28;20038;-76
2022/03/03 00:51:55;;;;;;;23.67;13.75;;;-1.50;99.90;;;-144.05;100.00;68007.91;4991940;28;20067;-77
2022/03/03 00:56:25;;;;;;;30.35;14.32;;;-1.60;99.90;;;-144.05;100.00;68007.91;4975801;28;20044;-78
2022/03/03 01:00:52;;;;;;;22.98;13.10;;;-1.70;99.90;;;-144.05;100.00;68007.91;4976039;28;20082;-77
2022/03/03 01:05:22;;;;;;;25.63;13.50;;;-1.70;99.90;;;-144.05;100.00;68007.91;4990573;28;20109;-78
2022/03/03 01:09:49;;;;;;;29.92;15.75;;;-1.70;99.90;;;-144.05;100.00;68007.91;5005882;28;20098;-78
2022/03/03 01:14:21;;;;;;;26.70;13.32;;;-1.80;99.90;;;-144.05;100.00;68007.91;4990223;28;20190;-77
2022/03/03 01:18:52;;;;;;;25.35;14.68;;;-1.80;99.90;;;-144.05;100.00;68007.91;4989976;28;20046;-76
2022/03/03 01:23:22;;;;;;;24.27;13.80;;;-1.80;99.90;;;-144.05;100.00;68007.91;4988381;28;20478;-77
2022/03/03 01:27:53;;;;;;;24.85;13.32;;;-1.70;99.90;;;-144.05;100.00;68007.91;4977264;28;20084;-78
2022/03/03 01:32:23;;;;;;;;;;;-1.70;99.90;;;-144.05;100.00;68007.91;4975822;28;20030;-76
2022/03/03 01:36:50;;;;;;;22.13;12.75;;;-1.70;99.90;;;-144.05;100.00;68007.91;4975287;28;20388;-77
2022/03/03 01:41:26;;;;;;;24.90;12.27;;;-1.70;99.90;;;-144.05;100.00;68007.91;4978834;28;20086;-77
2022/03/03 01:45:53;;;;;;;21.02;12.50;;;-1.60;99.90;;;-144.05;100.00;68007.91;4984845;28;20034;-76
2022/03/03 01:50:25;;;;;;;26.95;13.55;;;-1.60;99.90;;;-144.05;100.00;68007.91;5001824;28;20041;-78
2022/03/03 01:55:04;;;;;;;26.20;13.85;;;-1.60;99.90;;;-144.05;100.00;68007.91;5001353;28;20105;-77
2022/03/03 01:59:31;;;;;;;23.25;13.52;;;-1.60;99.90;;;-144.05;100.00;68007.91;5016039;28;20098;-78
2022/03/03 02:04:01;;;;;;;23.88;13.27;;;-1.60;99.90;;;-144.05;100.00;68007.91;5016601;28;20069;-77
2022/03/03 02:08:29;;;;;;;22.75;12.50;;;-1.80;99.90;;;-144.05;100.00;68007.91;4982696;28;20030;-77
2022/03/03 02:12:56;;;;;;;23.98;13.60;;;-1.70;99.90;;;-144.05;100.00;68007.91;4982319;28;20095;-77
2022/03/03 02:17:33;;;;;;;26.30;12.77;;;-1.90;99.90;;;-144.05;100.00;68007.91;4982609;28;20035;-76
2022/03/03 02:22:08;;;;;;;24.50;12.85;;;-2.10;99.90;;;-144.05;100.00;68007.91;4981702;28;20085;-78
2022/03/03 02:26:46;;;;;;;29.88;15.25;;;-2.10;99.90;;;-144.05;100.00;68007.91;4997948;28;20061;-78
2022/03/03 02:31:17;;;;;;;28.20;13.77;;;-2.00;99.90;;;-144.05;100.00;68007.91;4981280;28;20176;-78
2022/03/03 02:35:51;;;;;;;26.17;14.02;;;-1.90;99.90;;;-144.05;100.00;68007.91;4980760;28;20035;-77
2022/03/03 02:40:27;;;;;;;27.27;13.05;;;-1.90;99.90;;;-144.05;100.00;68007.91;4996094;28;20137;-77
2022/03/03 02:44:59;;;;;;;23.80;13.02;;;-1.90;99.90;;;-144.05;100.00;68007.91;4981386;28;20038;-78
2022/03/03 02:49:26;;;;;;;24.92;13.32;;;-1.80;99.90;;;-144.05;100.00;68007.91;4981418;28;20027;-77
2022/03/03 02:53:57;;;;;;;29.50;15.43;;;-1.80;99.90;;;-144.05;100.00;68007.91;4999012;28;20031;-76
2022/03/03 02:58:30;;;;;;;26.02;14.20;;;-1.90;99.90;;;-144.05;100.00;68007.91;4986592;28;20054;-77
2022/03/03 03:03:01;;;;;;;25.10;14.85;;;-1.90;99.90;;;-144.05;100.00;68007.91;4974106;28;20041;-78
2022/03/03 03:07:28;;;;;;;28.55;14.85;;;-1.90;99.90;;;-144.05;100.00;68007.91;4973448;28;20035;-77
2022/03/03 03:11:55;;;;;;;30.52;14.65;;;-2.00;99.90;;;-144.05;100.00;68007.91;4988511;28;20035;-76
2022/03/03 03:16:23;;;;;;;27.58;15.73;;;-2.00;99.90;;;-144.05;100.00;68007.91;4973795;28;20447;-76
2022/03/03 03:20:53;;;;;;;25.25;13.77;;;-2.00;99.90;;;-144.05;100.00;68007.91;4973393;28;20081;-77
2022/03/03 03:25:24;;;;;;;;;;;-2.00;99.90;;;-144.05;100.00;68007.91;4973425;28;20042;-78
2022/03/03 03:29:52;;;;;;;26.40;15.25;;;-2.00;99.90;;;-144.05;100.00;68007.91;4987824;28;19932;-77
2022/03/03 03:34:20;;;;;;;29.92;14.30;;;-2.00;99.90;;;-144.05;100.00;68007.91;4973009;28;20114;-77
2022/03/03 03:38:50;;;;;;;22.40;13.38;;;-2.10;99.90;;;-144.05;100.00;68007.91;4972952;28;20031;-78
2022/03/03 03:43:20;;;;;;;30.63;15.95;;;-2.10;99.90;;;-144.05;100.00;68007.91;4988249;28;20027;-77
2022/03/03 03:47:48;;;;;;;30.55;15.55;;;-2.10;99.90;;;-144.05;100.00;68007.91;4992480;28;20125;-78
2022/03/03 03:52:21;;;;;;;24.92;14.35;;;-2.10;99.90;;;-144.05;100.00;68007.91;5008059;28;20042;-77
2022/03/03 03:56:48;;;;;;;27.45;13.18;;;-2.10;99.90;;;-144.05;100.00;68007.91;4992892;28;20022;-78
2022/03/03 04:01:18;;;;;;;25.92;14.27;;;-2.10;99.90;;;-144.05;100.00;68007.91;4992260;28;20026;-77
2022/03/03 04:05:48;;;;;;;25.23;13.18;;;-2.10;99.90;;;-144.05;100.00;68007.91;5007556;28;20030;-77
2022/03/03 04:10:28;;;;;;;25.35;13.07;;;-2.10;99.90;;;-144.05;100.00;68007.91;4992156;28;20080;-77
2022/03/03 04:14:56;;;;;;;25.20;13.00;;;-2.10;99.90;;;-144.05;100.00;68007.91;5011854;28;20129;-77
2022/03/03 04:19:24;;;;;;;27.13;14.13;;;-2.10;99.90;;;-144.05;100.00;68007.91;4999768;28;20070;-77
2022/03/03 04:23:52;;;;;;;29.35;13.95;;;-2.10;99.90;;;-144.05;100.00;68007.91;4999705;28;20034;-77
2022/03/03 04:28:20;;;;;;;29.23;14.10;;;-2.20;99.90;;;-144.05;100.00;68007.91;5000135;28;20487;-76
2022/03/03 04:32:47;;;;;;;28.98;14.35;;;-2.20;99.90;;;-144.05;100.00;68007.91;5015158;28;20378;-76
2022/03/03 04:37:23;;;;;;;28.75;15.65;;;-2.20;99.90;;;-144.05;100.00;68007.91;5014133;28;20125;-77
2022/03/03 04:41:50;;;;;;;24.60;13.85;;;-2.20;99.90;;;-144.05;100.00;68007.91;5014733;28;20031;-77
2022/03/03 04:46:17;;;;;;;22.92;13.23;;;-2.30;99.90;;;-144.05;100.00;68007.91;5002023;28;20110;-78
2022/03/03 04:50:58;;;;;;;30.00;14.40;;;-2.30;99.90;;;-144.05;100.00;68007.91;4978966;28;20031;-77
2022/03/03 04:55:29;;;;;;;28.10;15.30;;;-2.30;99.90;;;-144.05;100.00;68007.91;4978000;28;20045;-78
2022/03/03 05:00:02;;;;;;;26.92;13.90;;;-2.40;99.90;;;-144.05;100.00;68007.91;4980907;28;20034;-77
2022/03/03 05:04:29;;;;;;;27.80;14.73;;;-2.40;99.90;;;-144.05;100.00;68007.91;4976279;28;20027;-77
2022/03/03 05:09:06;;;;;;;29.80;14.68;;;-2.50;99.90;;;-144.05;100.00;68007.91;4991248;28;20035;-77
2022/03/03 05:13:36;;;;;;;34.88;16.27;;;-2.50;99.90;;;-144.05;100.00;68007.91;4975979;28;20037;-77
2022/03/03 05:18:07;;;;;;;;;;;-2.50;99.90;;;-144.05;100.00;68007.91;4991378;28;20130;-77
2022/03/03 05:22:34;;;;;;;31.70;14.70;;;-2.50;99.90;;;-144.05;100.00;68007.91;4980909;28;19922;-78
2022/03/03 05:27:02;;;;;;;23.67;13.20;;;-2.40;99.90;;;-144.05;100.00;68007.91;4999165;28;20103;-78
2022/03/03 05:31:32;;;;;;;30.02;13.98;;;-2.40;99.90;;;-144.05;100.00;68007.91;5002220;28;20556;-80
2022/03/03 05:36:02;;;;;;;;;;;-2.40;99.90;;;-144.05;100.00;68007.91;5000210;28;20480;-78
2022/03/03 05:40:32;;;;;;;26.48;13.18;;;-2.50;99.90;;;-144.05;100.00;68007.91;4980727;28;19920;-79
2022/03/03 05:45:01;;;;;;;27.05;13.52;;;-2.60;99.90;;;-144.05;100.00;68007.91;4985058;28;20030;-79
2022/03/03 05:49:31;;;;;;;28.95;13.65;;;-2.70;99.90;;;-144.05;100.00;68007.91;5001192;28;20446;-78
2022/03/03 05:54:07;;;;;;;27.85;14.02;;;-2.70;99.90;;;-144.05;100.00;68007.91;5016837;28;20132;-80
2022/03/03 05:58:47;;;;;;;25.95;14.68;;;-2.60;99.90;;;-144.05;100.00;68007.91;5018603;28;20526;-78
2022/03/03 06:03:20;;;;;;;27.92;14.27;;;-2.50;99.90;;;-144.05;100.00;68007.91;5019506;28;20029;-79
2022/03/03 06:07:56;;;;;;;27.70;14.77;;;-2.50;99.90;;;-144.05;100.00;68007.91;5001936;28;20112;-79
2022/03/03 06:12:28;;;;;;;30.08;14.90;;;-2.60;99.90;;;-144.05;100.00;68007.91;5018340;28;20033;-76
2022/03/03 06:17:06;;;;;;;27.92;13.25;;;-2.60;99.90;;;-144.05;100.00;68007.91;5000213;28;20213;-77
2022/03/03 06:21:43;;;;;;;28.13;13.50;;;-2.50;99.90;;;-144.05;100.00;68007.91;5018615;28;20033;-78
2022/03/03 06:26:10;;;;;;;34.33;14.15;;;-2.40;99.90;;;-144.05;100.00;68007.91;5018440;28;20029;-78
2022/03/03 06:30:54;;;;;;;26.40;13.55;;;-2.30;99.90;;;-144.05;100.00;68007.91;5019159;28;20100;-78
2022/03/03 06:35:24;;;;;;;24.85;13.95;;;-2.30;99.90;;;-144.05;100.00;68007.91;5020249;28;20026;-78
2022/03/03 06:39:51;;;;;;;;;;;-2.20;99.90;;;-144.05;100.00;68007.91;5000061;28;20029;-79
2022/03/03 06:44:21;;;;;;;24.67;12.15;;;-2.00;99.90;;;-144.05;100.00;68007.91;5016764;28;20353;-76
2022/03/03 06:48:49;;;;;;;28.00;14.60;;;-1.90;99.90;;;-144.05;100.00;68007.91;4978621;28;20042;-77
2022/03/03 06:53:20;;;;;;;27.45;13.77;;;-1.70;99.90;;;-144.05;100.00;68007.91;4977542;28;20141;-79
2022/03/03 06:57:52;;;;;;;31.20;13.50;;;-1.40;99.90;;;-144.05;100.00;68007.91;4961962;28;20046;-76
2022/03/03 07:02:26;;;;;;;32.30;14.82;;;-1.00;99.90;;;-144.05;100.00;68007.91;4977327;28;20479;-78
2022/03/03 07:06:53;;;;;;;22.98;13.63;;;-0.60;99.90;;;-144.05;100.00;68007.91;4979621;28;20049;-79
2022/03/03 07:11:27;;;;;;;36.70;15.10;;;-0.30;99.90;;;-144.05;100.00;68007.91;4978663;28;20039;-78
2022/03/03 07:15:57;;;;;;;28.80;14.88;;;0.10;99.90;;;-144.05;100.00;68007.91;4979088;28;20034;-77
2022/03/03 07:20:42;;;;;;;31.15;13.90;;;0.50;99.90;;;-144.05;100.00;68007.91;4978968;28;20510;-76
2022/03/03 07:25:33;;;;;;;31.52;14.13;;;1.00;99.90;;;-144.05;100.00;68007.91;4979150;28;20339;-79
2022/03/03 07:30:13;;;;;;;27.50;13.40;;;1.40;99.90;;;-144.05;100.00;68007.91;4978357;28;20065;-77
2022/03/03 07:35:09;;;;;;;25.50;14.23;;;1.80;99.90;;;-144.05;100.00;68007.91;4976845;28;20026;-77
2022/03/03 07:39:52;;;;;;;23.45;12.52;;;2.20;99.90;;;-144.05;100.00;68007.91;4985208;28;20038;-76
2022/03/03 07:44:24;;;;;;;23.13;12.10;;;2.60;99.90;;;-144.05;100.00;68007.91;4991698;28;20035;-75
2022/03/03 07:48:56;;;;;;;21.48;12.45;;;3.00;99.90;;;-144.05;100.00;68007.91;5012935;28;20054;-76
2022/03/03 07:53:32;;;;;;;24.65;13.60;;;3.20;99.90;;;-144.05;100.00;68007.91;5013586;28;20085;-75
2022/03/03 07:58:10;;;;;;;25.90;13.32;;;3.40;99.90;;;-144.05;100.00;68007.91;5012224;28;20077;-75
2022/03/03 08:02:42;;;;;;;23.05;12.73;;;3.70;99.90;;;-144.05;100.00;68007.91;5016588;28;20014;-74
2022/03/03 08:07:11;;;;;;;24.58;12.68;;;3.90;99.90;;;-144.05;100.00;68007.91;5012152;28;20132;-76
2022/03/03 08:11:41;;;;;;;27.35;13.13;;;4.20;99.90;;;-144.05;100.00;68007.91;5005044;28;20045;-74
2022/03/03 08:16:13;;;;;;;21.85;12.15;;;4.60;99.90;;;-144.05;100.00;68007.91;4994562;28;20113;-75
2022/03/03 08:20:41;;;;;;;21.33;12.30;;;4.80;99.90;;;-144.05;100.00;68007.91;4993517;28;20109;-77
2022/03/03 08:25:12;;;;;;;21.92;12.18;;;5.30;99.90;;;-144.05;100.00;68007.91;4995133;28;20058;-76
2022/03/03 08:29:43;;;;;;;21.92;12.52;;;5.90;99.90;;;-144.05;100.00;68007.91;4997770;28;20045;-77
2022/03/03 08:34:21;;;;;;;19.63;11.63;;;6.50;99.90;;;-144.05;100.00;68007.91;5001886;28;20042;-79
2022/03/03 08:39:23;;;;;;;21.65;12.18;;;6.70;96.40;;;-144.05;100.00;68007.91;5001777;28;20037;-77
2022/03/03 08:43:57;;;;;;;20.10;11.20;;;7.10;91.20;;;-144.05;100.00;68007.91;4985295;28;20132;-76
2022/03/03 08:48:30;;;;;;;19.15;11.13;;;7.80;88.70;;;-144.05;100.00;68007.91;4991356;28;20513;-77
2022/03/03 08:52:59;;;;;;;21.35;11.55;;;8.10;82.20;;;-144.05;100.00;68007.91;4982088;28;20027;-77
2022/03/03 08:57:28;;;;;;;22.17;11.68;;;8.60;77.60;;;-144.05;100.00;68007.91;4980019;28;20106;-78
2022/03/03 09:01:58;;;;;;;21.88;12.05;;;8.50;76.00;;;-144.05;100.00;68007.91;4980983;28;20068;-77
2022/03/03 09:06:34;;;;;;;24.42;12.85;;;8.80;73.70;;;-144.05;100.00;68007.91;4962378;28;20035;-77
2022/03/03 09:11:04;;;;;;;21.60;12.60;;;8.50;74.20;;;-144.05;100.00;68007.91;4961770;28;20073;-76
2022/03/03 09:15:38;;;;;;;19.42;12.70;;;8.70;73.70;;;-144.05;100.00;68007.91;4979418;28;20159;-76
2022/03/03 09:20:08;;;;;;;22.30;10.75;;;9.10;70.90;;;-144.05;100.00;68007.91;4981055;28;20033;-76
2022/03/03 09:24:42;;;;;;;19.38;11.57;;;9.10;69.20;;;-144.05;100.00;68007.91;4978608;28;20031;-76
2022/03/03 09:29:09;;;;;;;18.25;11.60;;;9.30;68.70;;;-144.05;100.00;68007.91;4977888;28;20110;-76
2022/03/03 09:33:37;;;;;;;18.63;9.93;;;9.60;67.10;;;-144.05;100.00;68007.91;4978723;28;20118;-78
2022/03/03 09:38:11;;;;;;;21.83;11.27;;;10.10;66.10;;;-144.05;100.00;68007.91;4978147;28;20120;-77
2022/03/03 09:42:41;;;;;;;17.98;10.40;;;10.20;62.60;;;-144.05;100.00;68007.91;4978158;28;20399;-77
2022/03/03 09:47:13;;;;;;;14.27;11.10;;;10.30;60.20;;;-144.05;100.00;68007.91;5000023;28;20105;-77
2022/03/03 09:51:52;;;;;;;18.10;10.35;;;10.10;60.30;;;-144.05;100.00;68007.91;5018097;28;20049;-77
2022/03/03 09:56:27;;;;;;;18.33;9.73;;;10.00;60.20;;;-144.05;100.00;68007.91;4998242;28;20148;-76
2022/03/03 10:00:54;;;;;;;16.17;10.18;;;10.20;60.60;;;-144.05;100.00;68007.91;4998971;28;20030;-76
2022/03/03 10:05:28;;;;;;;15.38;10.35;;;10.40;59.80;;;-144.05;100.00;68007.91;5016745;28;20093;-77
2022/03/03 10:10:14;;;;;;;14.73;10.35;;;10.50;60.10;;;-144.05;100.00;68007.91;5017265;28;20033;-79
2022/03/03 10:14:48;;;;;;;17.80;9.88;;;11.00;59.00;;;-144.05;100.00;68007.91;4998706;28;20125;-77
2022/03/03 10:19:18;;;;;;;20.60;10.02;;;11.30;58.40;;;-144.05;100.00;68007.91;5016231;28;20096;-77
2022/03/03 10:23:49;;;;;;;17.08;9.68;;;11.00;57.00;;;-144.05;100.00;68007.91;4999013;28;20037;-76
2022/03/03 10:28:23;;;;;;;15.23;10.23;;;11.20;57.20;;;-144.05;100.00;68007.91;4998623;28;20508;-76
2022/03/03 10:32:55;;;;;;;15.60;10.07;;;11.50;58.00;;;-144.05;100.00;68007.91;5016408;28;20112;-77
2022/03/03 10:37:24;;;;;;;13.75;9.52;;;11.70;55.90;;;-144.05;100.00;68007.91;5002264;28;20026;-77
2022/03/03 10:42:00;;;;;;;13.20;9.27;;;12.00;55.10;;;-144.05;100.00;68007.91;5016329;28;20037;-78
2022/03/03 10:46:34;;;;;;;18.33;9.90;;;12.10;53.70;;;-144.05;100.00;68007.91;4985885;28;20030;-78
2022/03/03 10:51:19;;;;;;;15.93;8.27;;;12.10;53.40;;;-144.05;100.00;68007.91;4985295;28;20124;-78
2022/03/03 10:56:20;;;;;;;13.95;8.55;;;12.10;54.30;;;-144.05;100.00;68007.91;5014749;28;20041;-76
2022/03/03 11:00:57;;;;;;;12.48;8.00;;;12.20;54.40;;;-144.05;100.00;68007.91;4988474;28;20099;-76
2022/03/03 11:05:25;;;;;;;14.70;9.20;;;12.50;54.90;;;-144.05;100.00;68007.91;5016116;28;20037;-77
2022/03/03 11:09:58;;;;;;;13.23;8.90;;;12.30;53.70;;;-144.05;100.00;68007.91;5014379;28;20030;-77
2022/03/03 11:14:32;;;;;;;12.48;8.35;;;12.60;53.00;;;-144.05;100.00;68007.91;5015418;28;20030;-75
2022/03/03 11:23:44;;;;;;;13.98;9.10;;;12.40;51.20;;;-144.05;100.00;68007.91;5009071;28;20275;-83
2022/03/03 11:29:03;;;;;;;10.48;8.15;;;12.30;52.20;;;-144.05;100.00;68007.91;4993560;28;20022;-82
2022/03/03 11:33:41;;;;;;;14.93;9.40;;;12.10;52.60;;;-144.05;100.00;68007.91;4990117;28;20042;-83
2022/03/03 11:38:45;;;;;;;15.02;9.20;;;12.00;53.20;;;-144.05;100.00;68007.91;4989966;28;20034;-84
2022/03/03 11:43:37;;;;;;;15.30;10.68;;;12.00;52.70;;;-144.05;100.00;68007.91;4989918;28;20109;-82
2022/03/03 11:48:24;;;;;;;18.30;9.82;;;12.10;53.20;;;-144.05;100.00;68007.91;4976810;28;20057;-74
2022/03/03 11:52:54;;;;;;;15.90;10.25;;;12.30;52.70;;;-144.05;100.00;68007.91;4993136;28;20038;-73
2022/03/03 11:58:31;;;;;;;18.08;10.48;;;12.30;52.40;;;-144.05;100.00;68007.91;4988392;28;20060;-83
2022/03/03 12:03:03;;;;;;;19.08;10.70;;;12.30;53.80;;;-144.05;100.00;68007.91;4987663;28;20050;-81
2022/03/03 12:07:39;;;;;;;16.05;10.45;;;12.20;54.60;;;-144.05;100.00;68007.91;4990503;28;20042;-83
2022/03/03 12:12:43;;;;;;;16.90;10.80;;;12.40;53.40;;;-144.05;100.00;68007.91;4993785;28;20034;-82
2022/03/03 12:17:37;;;;;;;18.17;10.90;;;12.40;54.00;;;-144.05;100.00;68007.91;5012212;28;20038;-83
2022/03/03 12:22:33;;;;;;;17.33;10.60;;;12.70;53.50;;;-144.05;100.00;68007.91;5012898;28;20038;-82
2022/03/03 12:27:14;;;;;;;16.45;8.93;;;12.90;51.70;;;-144.05;100.00;68007.91;4995346;28;20073;-81
2022/03/03 12:31:54;;;;;;;13.52;9.77;;;13.30;50.70;;;-144.05;100.00;68007.91;4995322;28;20030;-83
2022/03/03 12:36:31;;;;;;;14.57;9.70;;;13.00;50.60;;;-144.05;100.00;68007.91;4995661;28;20033;-83
2022/03/03 12:41:04;;;;;;;13.18;8.65;;;13.10;50.80;;;-144.05;100.00;68007.91;4995117;28;20026;-81
2022/03/03 12:45:40;;;;;;;14.10;9.52;;;13.40;51.40;;;-144.05;100.00;68007.91;4987855;28;20095;-79
2022/03/03 12:50:08;;;;;;;18.83;10.68;;;13.30;51.20;;;-144.05;100.00;68007.91;4986544;28;20490;-83
2022/03/03 12:54:44;;;;;;;16.77;10.68;;;13.20;51.50;;;-144.05;100.00;68007.91;4985200;28;20552;-83
2022/03/03 12:59:11;;;;;;;12.35;9.23;;;13.30;52.40;;;-144.05;100.00;68007.91;5005682;28;20030;-83
2022/03/03 13:03:52;;;;;;;13.23;9.88;;;13.40;50.10;;;-144.05;100.00;68007.91;4989846;28;20034;-82
2022/03/03 13:08:40;;;;;;;13.52;9.35;;;13.40;50.50;;;-144.05;100.00;68007.91;5006696;28;20030;-82
2022/03/03 13:13:10;;;;;;;14.10;9.68;;;13.40;50.40;;;-144.05;100.00;68007.91;5007760;28;20406;-82
2022/03/03 13:17:44;;;;;;;16.13;9.75;;;13.50;51.80;;;-144.05;100.00;68007.91;4988722;28;20030;-82
2022/03/03 13:22:17;;;;;;;16.23;10.48;;;13.50;50.10;;;-144.05;100.00;68007.91;4989667;28;20057;-82
2022/03/03 13:26:45;;;;;;;15.07;9.57;;;13.30;51.30;;;-144.05;100.00;68007.91;4991783;28;20033;-82
2022/03/03 13:31:23;;;;;;;17.30;10.57;;;13.10;52.20;;;-144.05;100.00;68007.91;5010837;28;20026;-83
2022/03/03 13:35:55;;;;;;;18.30;9.55;;;13.00;51.50;;;-144.05;100.00;68007.91;5008624;28;20027;-83
2022/03/03 13:40:30;;;;;;;15.00;9.73;;;13.00;51.50;;;-144.05;100.00;68007.91;4991621;28;20592;-82
2022/03/03 13:45:19;;;;;;;21.23;9.60;;;13.10;50.40;;;-144.05;100.00;68007.91;4985015;28;20066;-84
2022/03/03 13:49:46;;;;;;;12.82;8.80;;;13.30;50.40;;;-144.05;100.00;68007.91;4970866;28;20022;-84
2022/03/03 13:54:38;;;;;;;11.93;9.07;;;13.50;50.80;;;-144.05;100.00;68007.91;4987673;28;20049;-81
2022/03/03 13:59:09;;;;;;;17.13;9.25;;;13.30;51.40;;;-144.05;100.00;68007.91;4992852;28;20035;-84
2022/03/03 14:03:50;;;;;;;10.98;8.30;;;13.10;49.30;;;-144.05;100.00;68007.91;4973882;28;20035;-84
2022/03/03 14:08:46;;;;;;;20.08;9.45;;;12.90;49.60;;;-144.05;100.00;68007.91;4988242;28;20058;-83
2022/03/03 14:13:28;;;;;;;10.68;7.63;;;12.90;50.60;;;-144.05;100.00;68007.91;4970727;28;20110;-83
2022/03/03 14:17:59;;;;;;;;;;;12.60;49.50;;;-144.05;100.00;68007.91;4975788;28;20026;-81
2022/03/03 14:22:30;;;;;;;14.13;8.35;;;12.40;49.30;;;-144.05;100.00;68007.91;4986981;28;19922;-82
2022/03/03 14:27:07;;;;;;;12.20;7.85;;;12.40;50.50;;;-144.05;100.00;68007.91;4990646;28;20109;-84
2022/03/03 14:31:38;;;;;;;11.55;7.72;;;12.30;50.60;;;-144.05;100.00;68007.91;4990691;28;20063;-82
2022/03/03 14:36:05;;;;;;;16.80;8.60;;;12.30;51.90;;;-144.05;100.00;68007.91;4973462;28;20031;-81
2022/03/03 14:40:33;;;;;;;10.90;7.88;;;12.20;52.30;;;-144.05;100.00;68007.91;4989875;28;20023;-83
2022/03/03 14:45:08;;;;;;;12.77;8.15;;;12.00;52.30;;;-144.05;100.00;68007.91;4976619;28;20548;-82
2022/03/03 14:49:38;;;;;;;14.18;9.45;;;11.90;54.40;;;-144.05;100.00;68007.91;4994243;28;20034;-83
2022/03/03 14:54:07;;;;;;;13.05;8.65;;;11.90;54.70;;;-144.05;100.00;68007.91;5014901;28;20117;-79
2022/03/03 14:58:37;;;;;;;14.38;9.30;;;11.90;54.30;;;-144.05;100.00;68007.91;5013902;28;20085;-82
2022/03/03 15:03:05;;;;;;;15.90;8.65;;;11.70;54.10;;;-144.05;100.00;68007.91;5014710;28;20140;-81
2022/03/03 15:07:39;;;;;;;13.70;8.00;;;11.80;54.50;;;-144.05;100.00;68007.91;5013825;28;20101;-81
2022/03/03 15:12:07;;;;;;;11.98;7.80;;;11.70;54.50;;;-144.05;100.00;68007.91;4995717;28;20030;-81
2022/03/03 15:16:38;;;;;;;12.85;7.25;;;11.60;55.80;;;-144.05;100.00;68007.91;5011454;28;20030;-81
2022/03/03 15:21:09;;;;;;;10.73;6.40;;;11.50;54.70;;;-144.05;100.00;68007.91;5008492;28;20073;-80
2022/03/03 15:25:43;;;;;;;15.88;8.13;;;11.40;56.00;;;-144.05;100.00;68007.91;5008590;28;20042;-82
2022/03/03 15:30:20;;;;;;;9.95;7.15;;;11.30;55.10;;;-144.05;100.00;68007.91;5009615;28;20041;-84
2022/03/03 15:39:42;;;;;;;13.45;7.40;;;11.00;56.80;;;-144.05;100.00;68007.91;5010677;28;20092;-82
2022/03/03 15:44:17;;;;;;;13.43;7.28;;;11.00;57.20;;;-144.05;100.00;68007.91;5011816;28;20054;-81
2022/03/03 15:49:03;;;;;;;11.75;7.78;;;10.90;57.10;;;-144.05;100.00;68007.91;4991456;28;20030;-81
2022/03/03 15:53:36;;;;;;;12.15;7.95;;;10.70;57.40;;;-144.05;100.00;68007.91;4988591;28;20031;-83
2022/03/03 15:58:04;;;;;;;11.23;7.43;;;10.50;56.90;;;-144.05;100.00;68007.91;4963175;28;20387;-84
2022/03/03 16:02:36;;;;;;;12.93;8.32;;;10.30;57.90;;;-144.05;100.00;68007.91;4986469;28;20042;-82
2022/03/03 16:07:05;;;;;;;11.80;7.55;;;10.20;58.00;;;-144.05;100.00;68007.91;4993853;28;20067;-83
2022/03/03 16:11:32;;;;;;;15.07;7.78;;;10.10;58.70;;;-144.05;100.00;68007.91;4993113;28;20035;-81
2022/03/03 16:16:06;;;;;;;12.43;7.47;;;10.00;59.00;;;-144.05;100.00;68007.91;4991531;28;20035;-81
2022/03/03 16:20:40;;;;;;;10.75;7.38;;;9.80;59.60;;;-144.05;100.00;68007.91;4992437;28;20030;-82
2022/03/03 16:25:13;;;;;;;12.65;6.82;;;9.80;59.10;;;-144.05;100.00;68007.91;4988247;28;20031;-81
2022/03/03 16:29:51;;;;;;;9.38;6.50;;;9.70;59.30;;;-144.05;100.00;68007.91;4994118;28;20054;-81
2022/03/03 16:34:21;;;;;;;12.07;6.75;;;9.60;58.70;;;-144.05;100.00;68007.91;4989379;28;20105;-82
2022/03/03 16:38:52;;;;;;;12.32;7.07;;;9.50;58.60;;;-144.05;100.00;68007.91;4990284;28;20027;-84
2022/03/03 16:43:25;;;;;;;9.52;6.35;;;9.40;58.30;;;-144.05;100.00;68007.91;4990695;28;20062;-83
2022/03/03 16:47:58;;;;;;;11.57;6.68;;;9.30;58.40;;;-144.05;100.00;68007.91;4990142;28;20039;-82
2022/03/03 16:52:27;;;;;;;13.60;8.18;;;9.20;58.90;;;-144.05;100.00;68007.91;4991780;28;20034;-82
2022/03/03 16:57:01;;;;;;;9.73;7.00;;;9.00;59.70;;;-144.05;100.00;68007.91;4977183;28;20027;-83
2022/03/03 17:01:28;;;;;;;13.23;6.85;;;8.80;60.30;;;-144.05;100.00;68007.91;4976613;28;20031;-83
2022/03/03 17:05:58;;;;;;;13.07;7.38;;;8.70;60.50;;;-144.05;100.00;68007.91;4978602;28;20038;-82
2022/03/03 17:10:29;;;;;;;12.00;7.10;;;8.70;60.80;;;-144.05;100.00;68007.91;4978248;28;20046;-83
2022/03/03 17:14:59;;;;;;;14.07;7.65;;;8.60;61.30;;;-144.05;100.00;68007.91;4977951;28;20102;-82
2022/03/03 17:19:32;;;;;;;15.00;6.53;;;8.40;61.80;;;-144.05;100.00;68007.91;4975917;28;20057;-82
2022/03/03 17:24:00;;;;;;;12.38;7.80;;;8.20;62.30;;;-144.05;100.00;68007.91;5020144;28;20053;-75
2022/03/03 17:28:29;;;;;;;12.30;7.65;;;8.10;62.10;;;-144.05;100.00;68007.91;5017274;28;20025;-75
2022/03/03 17:33:03;;;;;;;12.35;7.25;;;8.10;62.40;;;-144.05;100.00;68007.91;4999931;28;20029;-76
2022/03/03 17:37:30;;;;;;;13.48;7.85;;;8.10;62.50;;;-144.05;100.00;68007.91;4995971;28;20034;-76
2022/03/03 17:42:16;;;;;;;13.63;7.50;;;8.00;62.40;;;-144.05;100.00;68007.91;4999315;28;20030;-76
2022/03/03 17:46:46;;;;;;;11.88;7.63;;;8.00;62.70;;;-144.05;100.00;68007.91;5012796;28;20029;-76
2022/03/03 17:51:24;;;;;;;13.77;8.25;;;7.80;63.40;;;-144.05;100.00;68007.91;5015930;28;20029;-78
2022/03/03 17:55:57;;;;;;;15.48;8.45;;;7.60;64.20;;;-144.05;100.00;68007.91;5016426;28;20108;-76
2022/03/03 18:00:25;;;;;;;14.77;8.23;;;7.50;65.00;;;-144.05;100.00;68007.91;4998460;28;20033;-75
2022/03/03 18:05:01;;;;;;;14.30;8.73;;;7.30;65.80;;;-144.05;100.00;68007.91;4998463;28;20468;-76
2022/03/03 18:09:29;;;;;;;14.20;8.82;;;7.20;66.50;;;-144.05;100.00;68007.91;5016601;28;20026;-76
2022/03/03 18:14:03;;;;;;;19.10;10.35;;;7.20;66.90;;;-144.05;100.00;68007.91;5016026;28;20524;-75
2022/03/03 18:18:33;;;;;;;15.30;8.95;;;7.20;67.50;;;-144.05;100.00;68007.91;5014799;28;20034;-76
2022/03/03 18:23:04;;;;;;;14.93;8.88;;;7.00;68.00;;;-144.05;100.00;68007.91;5016645;28;20030;-77
2022/03/03 18:27:34;;;;;;;17.83;10.55;;;6.90;68.60;;;-144.05;100.00;68007.91;5015346;28;20057;-77
2022/03/03 18:32:05;;;;;;;18.45;9.13;;;6.80;69.50;;;-144.05;100.00;68007.91;5012679;28;20398;-77